createdAt,value
2023-01-21T00:01:03.464Z,11.77
2023-01-21T00:03:05.009Z,11.10
2023-01-21T00:05:06.945Z,12.03
2023-01-21T00:07:08.528Z,11.77
2023-01-21T00:09:10.773Z,11.60
2023-01-21T00:11:15.307Z,10.33
2023-01-21T00:13:18.477Z,11.50
2023-01-21T00:15:20.033Z,11.87
2023-01-21T00:17:24.308Z,11.63
2023-01-21T00:19:26.599Z,11.00
2023-01-21T00:21:28.404Z,11.17
2023-01-21T00:23:31.188Z,10.93
2023-01-21T00:25:32.844Z,11.13
2023-01-21T00:27:34.432Z,11.53
2023-01-21T00:29:36.058Z,10.60
2023-01-21T00:31:37.640Z,11.10
2023-01-21T00:33:42.849Z,10.90
2023-01-21T00:35:44.260Z,11.70
2023-01-21T00:37:45.735Z,10.70
2023-01-21T00:39:47.342Z,10.37
2023-01-21T00:41:48.883Z,10.83
2023-01-21T00:43:50.750Z,11.13
2023-01-21T00:45:52.220Z,9.97
2023-01-21T00:47:55.723Z,11.10
2023-01-21T00:49:57.320Z,11.13
2023-01-21T00:51:58.970Z,12.53
2023-01-21T00:54:00.936Z,11.97
2023-01-21T00:56:08.017Z,11.50
2023-01-21T00:58:14.145Z,12.80
2023-01-21T01:00:19.532Z,11.47
2023-01-21T01:02:21.082Z,12.07
2023-01-21T01:04:23.111Z,13.47
2023-01-21T01:06:26.517Z,12.60
2023-01-21T01:08:28.101Z,12.70
2023-01-21T01:10:29.727Z,11.57
2023-01-21T01:12:31.732Z,11.37
2023-01-21T01:14:33.476Z,11.17
2023-01-21T01:16:35.072Z,11.30
2023-01-21T01:18:37.633Z,10.93
2023-01-21T01:20:42.937Z,11.73
2023-01-21T01:22:44.453Z,10.53
2023-01-21T01:24:46.221Z,10.13
2023-01-21T01:26:47.739Z,10.03
2023-01-21T01:28:49.562Z,11.47
2023-01-21T01:30:51.188Z,9.83
2023-01-21T01:32:52.790Z,10.20
2023-01-21T01:34:54.509Z,10.03
2023-01-21T01:36:58.857Z,9.17
2023-01-21T01:39:00.449Z,10.23
2023-01-21T01:41:02.292Z,10.53
2023-01-21T01:43:14.374Z,9.43
2023-01-21T01:45:20.202Z,10.00
2023-01-21T01:47:25.758Z,9.93
2023-01-21T01:49:27.433Z,10.17
2023-01-21T01:51:41.721Z,9.40
2023-01-21T01:53:45.946Z,10.30
2023-01-21T01:55:49.268Z,9.70
2023-01-21T01:57:55.247Z,9.80
2023-01-21T01:59:57.318Z,9.60
2023-01-21T02:02:07.930Z,10.13
2023-01-21T02:04:15.866Z,10.40
2023-01-21T02:06:18.938Z,10.13
2023-01-21T02:08:21.756Z,10.50
2023-01-21T02:10:23.423Z,10.07
2023-01-21T02:12:27.720Z,10.03
2023-01-21T02:14:34.556Z,10.00
2023-01-21T02:16:43.618Z,9.33
2023-01-21T02:18:48.193Z,9.80
2023-01-21T02:21:10.882Z,10.43
2023-01-21T02:23:23.292Z,10.40
2023-01-21T02:26:04.540Z,9.67
2023-01-21T02:28:37.166Z,10.07
2023-01-21T02:31:07.295Z,10.30
2023-01-21T02:33:37.435Z,9.97
2023-01-21T02:35:55.026Z,9.47
2023-01-21T02:38:09.442Z,10.17
2023-01-21T02:40:38.893Z,10.30
2023-01-21T02:43:05.969Z,9.53
2023-01-21T02:45:11.984Z,9.43
2023-01-21T02:47:26.016Z,10.23
2023-01-21T02:49:35.067Z,10.47
2023-01-21T02:51:36.794Z,10.23
2023-01-21T02:53:38.376Z,9.97
2023-01-21T02:55:42.626Z,10.83
2023-01-21T02:57:50.855Z,10.10
2023-01-21T02:59:56.590Z,10.30
2023-01-21T03:02:24.288Z,10.43
2023-01-21T03:04:31.865Z,9.57
2023-01-21T03:07:12.863Z,10.33
2023-01-21T03:09:26.768Z,10.23
2023-01-21T03:11:31.329Z,9.70
2023-01-21T03:14:04.830Z,10.57
2023-01-21T03:16:29.309Z,10.13
2023-01-21T03:18:43.555Z,10.30
2023-01-21T03:20:53.566Z,11.30
2023-01-21T03:23:01.189Z,11.47
2023-01-21T03:25:04.208Z,10.80
2023-01-21T03:27:10.123Z,10.97
2023-01-21T03:29:18.000Z,10.80
2023-01-21T03:32:10.105Z,10.37
2023-01-21T03:34:16.014Z,11.10
2023-01-21T03:36:36.445Z,10.93
2023-01-21T03:38:45.293Z,11.00
2023-01-21T03:40:57.236Z,10.83
2023-01-21T03:42:59.080Z,11.60
2023-01-21T03:45:01.872Z,10.77
2023-01-21T03:47:28.889Z,11.17
2023-01-21T03:49:38.136Z,11.57
2023-01-21T03:51:46.088Z,11.03
2023-01-21T03:53:58.472Z,11.80
2023-01-21T03:56:00.349Z,10.90
2023-01-21T03:58:02.061Z,10.87
2023-01-21T04:00:06.284Z,11.33
2023-01-21T04:02:08.143Z,11.83
2023-01-21T04:04:10.465Z,11.47
2023-01-21T04:06:17.907Z,13.00
2023-01-21T04:08:19.545Z,11.37
2023-01-21T04:10:21.223Z,11.53
2023-01-21T04:12:23.157Z,11.53
2023-01-21T04:14:24.830Z,12.17
2023-01-21T04:16:26.696Z,11.63
2023-01-21T04:18:28.468Z,11.90
2023-01-21T04:20:30.327Z,11.63
2023-01-21T04:22:32.102Z,11.87
2023-01-21T04:24:34.760Z,12.47
2023-01-21T04:26:36.443Z,11.60
2023-01-21T04:28:40.062Z,12.07
2023-01-21T04:30:41.910Z,12.43
2023-01-21T04:32:43.480Z,12.17
2023-01-21T04:34:45.160Z,11.83
2023-01-21T04:36:46.974Z,11.90
2023-01-21T04:38:48.621Z,11.40
2023-01-21T04:40:50.231Z,11.87
2023-01-21T04:42:51.808Z,11.80
2023-01-21T04:44:53.365Z,12.43
2023-01-21T04:46:55.103Z,11.50
2023-01-21T04:48:56.614Z,11.70
2023-01-21T04:50:58.321Z,11.80
2023-01-21T04:52:59.925Z,12.03
2023-01-21T04:55:01.548Z,11.17
2023-01-21T04:57:03.210Z,11.80
2023-01-21T04:59:05.389Z,11.37
2023-01-21T05:01:07.272Z,11.83
2023-01-21T05:03:08.914Z,11.50
2023-01-21T05:05:10.932Z,12.57
2023-01-21T05:07:12.638Z,12.60
2023-01-21T05:09:14.508Z,12.10
2023-01-21T05:11:21.888Z,11.50
2023-01-21T05:13:23.543Z,11.40
2023-01-21T05:15:28.110Z,11.77
2023-01-21T05:17:29.704Z,12.00
2023-01-21T05:19:31.526Z,12.60
2023-01-21T05:21:33.280Z,11.77
2023-01-21T05:23:34.860Z,11.33
2023-01-21T05:25:36.471Z,11.67
2023-01-21T05:27:38.227Z,12.00
2023-01-21T05:29:41.517Z,11.47
2023-01-21T05:31:44.208Z,11.73
2023-01-21T05:33:47.174Z,11.33
2023-01-21T05:35:59.496Z,10.43
2023-01-21T05:38:01.227Z,11.07
2023-01-21T05:40:02.931Z,10.77
2023-01-21T05:42:04.676Z,11.23
2023-01-21T05:44:11.606Z,11.30
2023-01-21T05:46:13.483Z,11.37
2023-01-21T05:48:15.146Z,10.37
2023-01-21T05:50:17.145Z,11.40
2023-01-21T05:52:22.114Z,11.43
2023-01-21T05:54:23.935Z,10.90
2023-01-21T05:56:25.770Z,10.43
2023-01-21T05:58:28.870Z,10.23
2023-01-21T06:00:31.084Z,11.13
2023-01-21T06:02:32.735Z,10.70
2023-01-21T06:04:34.301Z,10.80
2023-01-21T06:06:36.014Z,10.20
2023-01-21T06:08:37.725Z,10.57
2023-01-21T06:10:39.581Z,11.13
2023-01-21T06:12:41.177Z,10.53
2023-01-21T06:14:42.832Z,11.20
2023-01-21T06:16:45.980Z,11.03
2023-01-21T06:18:51.426Z,10.90
2023-01-21T06:20:53.875Z,10.10
2023-01-21T06:23:01.173Z,10.27
2023-01-21T06:25:03.027Z,10.70
2023-01-21T06:27:05.132Z,10.10
2023-01-21T06:29:06.790Z,10.50
2023-01-21T06:33:24.146Z,9.83
2023-01-21T06:35:25.719Z,10.93
2023-01-21T06:37:27.610Z,9.93
2023-01-21T06:39:29.075Z,10.50
2023-01-21T06:41:30.784Z,10.67
2023-01-21T06:43:32.390Z,10.87
2023-01-21T06:45:34.337Z,10.23
2023-01-21T06:47:36.075Z,11.07
2023-01-21T06:49:37.883Z,11.17
2023-01-21T06:51:40.119Z,10.13
2023-01-21T06:53:41.641Z,10.30
2023-01-21T06:55:43.196Z,10.27
2023-01-21T06:57:44.858Z,10.63
2023-01-21T06:59:46.523Z,10.63
2023-01-21T07:01:48.227Z,9.80
2023-01-21T07:03:51.296Z,10.07
2023-01-21T07:05:52.883Z,10.27
2023-01-21T07:07:55.933Z,9.80
2023-01-21T07:09:58.660Z,10.67
2023-01-21T07:12:00.297Z,10.87
2023-01-21T07:14:01.996Z,10.70
2023-01-21T07:16:06.795Z,10.93
2023-01-21T07:18:08.579Z,11.70
2023-01-21T07:20:12.503Z,11.40
2023-01-21T07:22:21.511Z,10.60
2023-01-21T07:24:26.015Z,10.60
2023-01-21T07:26:27.772Z,10.63
2023-01-21T07:28:29.492Z,10.77
2023-01-21T07:30:31.283Z,10.50
2023-01-21T07:32:33.028Z,10.43
2023-01-21T07:34:36.972Z,10.33
2023-01-21T07:36:38.580Z,10.07
2023-01-21T07:38:40.676Z,11.13
2023-01-21T07:40:43.434Z,10.33
2023-01-21T07:42:51.108Z,10.60
2023-01-21T07:44:54.052Z,10.33
2023-01-21T07:46:55.908Z,10.77
2023-01-21T07:48:57.552Z,9.87
2023-01-21T07:50:59.742Z,10.27
2023-01-21T07:53:01.828Z,10.43
2023-01-21T07:55:04.417Z,10.47
2023-01-21T07:57:06.069Z,10.90
2023-01-21T07:59:07.870Z,9.93
2023-01-21T08:01:10.335Z,10.63
2023-01-21T08:03:12.015Z,10.17
2023-01-21T08:05:15.183Z,11.57
2023-01-21T08:07:17.042Z,10.93
2023-01-21T08:09:18.648Z,11.73
2023-01-21T08:11:21.260Z,12.00
2023-01-21T08:13:23.704Z,10.80
2023-01-21T08:15:25.397Z,10.87
2023-01-21T08:17:27.307Z,11.07
2023-01-21T08:19:28.921Z,10.90
2023-01-21T08:21:30.596Z,10.07
2023-01-21T08:23:34.678Z,11.00
2023-01-21T08:25:41.562Z,10.77
2023-01-21T08:27:43.540Z,10.73
2023-01-21T08:29:45.051Z,10.27
2023-01-21T08:31:46.721Z,10.70
2023-01-21T08:33:48.371Z,11.23
2023-01-21T08:35:49.957Z,11.00
2023-01-21T08:37:57.695Z,11.67
2023-01-21T08:39:59.160Z,10.60
2023-01-21T08:42:05.857Z,12.20
2023-01-21T08:44:07.889Z,10.93
2023-01-21T08:46:09.783Z,10.67
2023-01-21T08:48:11.818Z,11.13
2023-01-21T08:50:13.648Z,10.67
2023-01-21T08:52:17.025Z,11.10
2023-01-21T08:54:40.183Z,11.40
2023-01-21T08:56:41.937Z,10.47
2023-01-21T08:58:43.685Z,10.53
2023-01-21T09:00:45.342Z,10.87
2023-01-21T09:02:47.358Z,11.80
2023-01-21T09:04:50.646Z,10.63
2023-01-21T09:06:52.349Z,11.17
2023-01-21T09:08:55.035Z,10.00
2023-01-21T09:11:01.163Z,10.93
2023-01-21T09:13:07.572Z,10.73
2023-01-21T09:15:09.538Z,10.93
2023-01-21T09:17:11.764Z,11.40
2023-01-21T09:19:14.646Z,11.30
2023-01-21T09:21:16.625Z,11.60
2023-01-21T09:23:25.103Z,11.17
2023-01-21T09:25:26.992Z,12.07
2023-01-21T09:27:29.026Z,11.63
2023-01-21T09:29:30.814Z,11.80
2023-01-21T09:31:32.794Z,11.73
2023-01-21T09:33:37.712Z,11.00
2023-01-21T09:35:41.910Z,11.73
2023-01-21T09:37:43.473Z,11.37
2023-01-21T09:39:49.261Z,10.77
2023-01-21T09:42:01.913Z,10.30
2023-01-21T09:44:03.522Z,10.37
2023-01-21T09:46:15.070Z,10.73
2023-01-21T09:48:31.384Z,9.77
2023-01-21T09:50:38.936Z,9.83
2023-01-21T09:52:43.182Z,9.90
2023-01-21T09:54:44.904Z,10.50
2023-01-21T09:57:06.585Z,8.60
2023-01-21T09:59:22.545Z,9.57
2023-01-21T10:01:33.568Z,9.70
2023-01-21T10:03:55.546Z,8.90
2023-01-21T10:06:22.536Z,9.73
2023-01-21T10:08:33.174Z,9.57
2023-01-21T10:10:50.291Z,9.90
2023-01-21T10:13:05.919Z,8.70
2023-01-21T10:15:33.984Z,7.80
2023-01-21T10:18:04.805Z,6.30
2023-01-21T10:20:32.367Z,6.20
2023-01-21T10:22:42.938Z,5.63
2023-01-21T10:24:52.439Z,5.43
2023-01-21T10:26:54.528Z,5.57
2023-01-21T10:28:56.302Z,5.77
2023-01-21T10:31:06.516Z,5.60
2023-01-21T10:33:19.469Z,6.33
2023-01-21T10:35:34.148Z,6.83
2023-01-21T10:37:48.102Z,6.40
2023-01-21T10:40:20.040Z,6.53
2023-01-21T10:42:51.440Z,6.57
2023-01-21T10:44:59.041Z,7.00
2023-01-21T10:47:35.794Z,7.23
2023-01-21T10:49:52.893Z,6.70
2023-01-21T10:52:04.393Z,6.97
2023-01-21T10:54:33.595Z,6.47
2023-01-21T10:56:50.047Z,6.20
2023-01-21T10:58:56.841Z,6.07
2023-01-21T11:01:05.542Z,6.27
2023-01-21T11:03:35.716Z,5.47
2023-01-21T11:05:38.513Z,5.30
2023-01-21T11:07:44.487Z,5.70
2023-01-21T11:09:48.228Z,5.47
2023-01-21T11:11:49.999Z,6.10
2023-01-21T11:13:51.842Z,5.90
2023-01-21T11:15:55.901Z,5.97
2023-01-21T11:17:58.958Z,5.70
2023-01-21T11:20:03.676Z,5.80
2023-01-21T11:22:17.321Z,5.80
2023-01-21T11:24:25.186Z,5.27
2023-01-21T11:26:30.057Z,5.43
2023-01-21T11:28:36.034Z,5.30
2023-01-21T11:30:50.976Z,4.90
2023-01-21T11:32:53.052Z,5.10
2023-01-21T11:35:10.494Z,5.20
2023-01-21T11:37:23.740Z,5.40
2023-01-21T11:39:33.502Z,5.23
2023-01-21T11:41:36.447Z,5.23
2023-01-21T11:43:50.988Z,5.30
2023-01-21T11:45:55.874Z,6.07
2023-01-21T11:48:02.071Z,5.87
2023-01-21T11:50:19.279Z,5.63
2023-01-21T11:52:22.258Z,5.20
2023-01-21T11:54:24.685Z,5.33
2023-01-21T11:56:26.483Z,6.37
2023-01-21T11:58:39.607Z,5.47
2023-01-21T12:00:46.591Z,5.30
2023-01-21T12:02:56.362Z,5.60
2023-01-21T12:05:14.307Z,5.70
2023-01-21T12:07:34.130Z,5.67
2023-01-21T12:09:43.465Z,4.80
2023-01-21T12:12:04.161Z,5.20
2023-01-21T12:14:30.576Z,5.00
2023-01-21T12:19:20.801Z,5.40
2023-01-21T12:21:48.602Z,5.53
2023-01-21T12:23:50.170Z,5.37
2023-01-21T12:26:02.338Z,5.23
2023-01-21T12:28:16.601Z,5.60
2023-01-21T12:30:27.042Z,5.30
2023-01-21T12:32:38.491Z,5.37
2023-01-21T12:34:47.353Z,5.80
2023-01-21T12:36:58.323Z,6.17
2023-01-21T12:39:16.661Z,5.57
2023-01-21T12:41:27.096Z,5.90
2023-01-21T12:43:43.334Z,5.87
2023-01-21T12:46:27.559Z,6.47
2023-01-21T12:48:40.085Z,5.87
2023-01-21T12:50:52.339Z,6.37
2023-01-21T12:53:10.248Z,6.17
2023-01-21T12:55:24.280Z,6.67
2023-01-21T12:57:31.525Z,6.10
2023-01-21T12:59:48.988Z,6.47
2023-01-21T13:02:20.830Z,6.77
2023-01-21T13:04:43.635Z,6.37
2023-01-21T13:06:54.688Z,6.80
2023-01-21T13:09:03.403Z,7.37
2023-01-21T13:11:23.731Z,7.57
2023-01-21T13:13:52.982Z,7.90
2023-01-21T13:16:02.028Z,8.30
2023-01-21T13:18:14.593Z,6.87
2023-01-21T13:20:19.518Z,7.17
2023-01-21T13:22:31.689Z,6.60
2023-01-21T13:24:43.186Z,6.80
2023-01-21T13:27:01.901Z,6.40
2023-01-21T13:29:41.190Z,6.40
2023-01-21T13:31:55.241Z,6.43
2023-01-21T13:33:56.961Z,6.33
2023-01-21T13:36:05.572Z,6.57
2023-01-21T13:38:30.314Z,7.00
2023-01-21T13:40:42.022Z,7.53
2023-01-21T13:42:55.605Z,7.60
2023-01-21T13:45:12.777Z,7.10
2023-01-21T13:47:40.349Z,6.83
2023-01-21T13:50:24.289Z,7.27
2023-01-21T13:52:44.180Z,7.07
2023-01-21T13:55:13.272Z,7.27
2023-01-21T13:57:48.807Z,6.53
2023-01-21T14:00:00.428Z,7.10
2023-01-21T14:02:13.446Z,7.10
2023-01-21T14:04:28.501Z,6.27
2023-01-21T14:06:42.480Z,6.90
2023-01-21T14:08:55.951Z,6.50
2023-01-21T14:11:07.725Z,6.50
2023-01-21T14:13:37.065Z,6.30
2023-01-21T14:16:04.138Z,5.47
2023-01-21T14:18:22.762Z,6.63
2023-01-21T14:20:52.559Z,6.93
2023-01-21T14:23:11.404Z,7.83
2023-01-21T14:25:39.692Z,7.57
2023-01-21T14:28:25.487Z,7.53
2023-01-21T14:30:37.156Z,7.13
2023-01-21T14:32:50.692Z,6.90
2023-01-21T14:35:15.375Z,6.63
2023-01-21T14:37:28.808Z,7.03
2023-01-21T14:40:02.697Z,7.03
2023-01-21T14:42:04.515Z,7.63
2023-01-21T14:44:36.156Z,7.10
2023-01-21T14:46:40.816Z,6.97
2023-01-21T14:48:55.646Z,7.50
2023-01-21T14:51:21.029Z,6.40
2023-01-21T14:53:27.057Z,6.90
2023-01-21T14:55:30.486Z,6.80
2023-01-21T14:57:33.573Z,7.13
2023-01-21T14:59:41.706Z,7.33
2023-01-21T15:01:47.848Z,6.63
2023-01-21T15:03:53.003Z,6.63
2023-01-21T15:06:08.030Z,6.80
2023-01-21T15:08:19.600Z,7.80
2023-01-21T15:10:33.044Z,7.53
2023-01-21T15:12:36.237Z,7.77
2023-01-21T15:14:41.644Z,8.07
2023-01-21T15:16:47.116Z,7.50
2023-01-21T15:19:07.786Z,7.27
2023-01-21T15:21:35.809Z,6.47
2023-01-21T15:23:38.978Z,7.20
2023-01-21T15:26:12.281Z,7.30
2023-01-21T15:28:39.911Z,7.07
2023-01-21T15:30:57.941Z,7.27
2023-01-21T15:33:01.848Z,7.23
2023-01-21T15:35:31.449Z,7.00
2023-01-21T15:37:42.134Z,7.00
2023-01-21T15:39:48.894Z,7.30
2023-01-21T15:42:23.266Z,6.10
2023-01-21T15:44:42.317Z,6.57
2023-01-21T15:46:57.241Z,7.10
2023-01-21T15:49:33.379Z,7.33
2023-01-21T15:51:57.367Z,6.93
2023-01-21T15:54:22.957Z,6.70
2023-01-21T15:56:56.965Z,7.00
2023-01-21T15:59:34.685Z,7.60
2023-01-21T16:01:40.297Z,6.60
2023-01-21T16:03:47.451Z,7.63
2023-01-21T16:06:18.010Z,6.67
2023-01-21T16:08:51.764Z,7.53
2023-01-21T16:11:20.258Z,7.43
2023-01-21T16:13:46.328Z,7.37
2023-01-21T16:16:03.374Z,7.47
2023-01-21T16:18:18.415Z,7.90
2023-01-21T16:20:20.134Z,7.90
2023-01-21T16:22:26.151Z,7.20
2023-01-21T16:24:32.496Z,7.10
2023-01-21T16:26:34.199Z,7.50
2023-01-21T16:28:44.519Z,7.13
2023-01-21T16:30:57.880Z,7.00
2023-01-21T16:33:10.787Z,6.60
2023-01-21T16:35:13.463Z,7.17
2023-01-21T16:37:19.227Z,7.40
2023-01-21T16:39:20.938Z,6.97
2023-01-21T16:41:27.769Z,6.93
2023-01-21T16:43:39.740Z,6.87
2023-01-21T16:45:48.847Z,8.33
2023-01-21T16:47:58.947Z,7.90
2023-01-21T16:50:02.159Z,7.93
2023-01-21T16:52:03.976Z,7.83
2023-01-21T16:54:17.623Z,7.27
2023-01-21T16:56:29.228Z,7.03
2023-01-21T16:58:34.290Z,7.73
2023-01-21T17:00:35.877Z,7.47
2023-01-21T17:02:37.811Z,7.50
2023-01-21T17:04:39.443Z,7.53
2023-01-21T17:06:43.388Z,8.83
2023-01-21T17:08:48.424Z,8.63
2023-01-21T17:11:22.843Z,9.10
2023-01-21T17:13:27.268Z,8.27
2023-01-21T17:15:40.124Z,8.27
2023-01-21T17:17:42.202Z,8.43
2023-01-21T17:19:44.042Z,7.57
2023-01-21T17:21:59.993Z,7.17
2023-01-21T17:24:18.662Z,7.00
2023-01-21T17:26:29.574Z,7.47
2023-01-21T17:28:44.619Z,7.33
2023-01-21T17:31:07.502Z,7.20
2023-01-21T17:33:30.978Z,7.27
2023-01-21T17:35:33.639Z,7.53
2023-01-21T17:37:56.495Z,7.23
2023-01-21T17:40:01.116Z,7.27
2023-01-21T17:42:04.641Z,7.83
2023-01-21T17:44:22.308Z,7.30
2023-01-21T17:46:24.830Z,6.80
2023-01-21T17:48:35.443Z,7.60
2023-01-21T17:50:37.105Z,7.40
2023-01-21T17:52:42.054Z,7.37
2023-01-21T17:54:48.609Z,6.93
2023-01-21T17:56:53.886Z,6.97
2023-01-21T17:58:56.119Z,7.60
2023-01-21T18:01:02.382Z,7.77
2023-01-21T18:03:04.430Z,7.23
2023-01-21T18:05:06.251Z,7.03
2023-01-21T18:07:37.899Z,8.07
2023-01-21T18:09:39.536Z,7.23
2023-01-21T18:11:41.173Z,7.27
2023-01-21T18:13:46.179Z,7.43
2023-01-21T18:15:51.803Z,7.20
2023-01-21T18:17:57.485Z,7.73
2023-01-21T18:19:59.293Z,7.03
2023-01-21T18:22:02.697Z,7.60
2023-01-21T18:24:05.293Z,7.93
2023-01-21T18:26:16.816Z,7.73
2023-01-21T18:28:20.909Z,7.63
2023-01-21T18:30:25.911Z,7.47
2023-01-21T18:32:33.641Z,6.90
2023-01-21T18:34:36.448Z,7.07
2023-01-21T18:36:39.989Z,6.73
2023-01-21T18:38:41.696Z,7.20
2023-01-21T18:40:43.495Z,7.87
2023-01-21T18:42:46.592Z,8.37
2023-01-21T18:44:48.141Z,8.37
2023-01-21T18:46:50.432Z,8.10
2023-01-21T18:48:54.573Z,7.83
2023-01-21T18:50:56.520Z,9.07
2023-01-21T18:52:58.296Z,8.27
2023-01-21T18:54:59.927Z,7.97
2023-01-21T18:57:05.573Z,7.87
2023-01-21T18:59:20.325Z,8.07
2023-01-21T19:01:24.023Z,8.37
2023-01-21T19:03:26.210Z,6.77
2023-01-21T19:05:36.053Z,7.53
2023-01-21T19:07:37.633Z,7.00
2023-01-21T19:09:42.202Z,7.07
2023-01-21T19:11:44.448Z,6.93
2023-01-21T19:13:49.252Z,7.70
2023-01-21T19:15:52.159Z,7.47
2023-01-21T19:17:56.143Z,7.97
2023-01-21T19:19:57.792Z,7.60
2023-01-21T19:21:59.896Z,7.10
2023-01-21T19:24:01.707Z,8.20
2023-01-21T19:26:04.799Z,7.40
2023-01-21T19:28:06.617Z,7.40
2023-01-21T19:30:21.959Z,7.37
2023-01-21T19:32:23.680Z,7.90
2023-01-21T19:34:30.611Z,6.90
2023-01-21T19:36:32.653Z,6.87
2023-01-21T19:38:34.627Z,7.50
2023-01-21T19:40:38.818Z,7.63
2023-01-21T19:42:40.521Z,8.17
2023-01-21T19:44:44.897Z,6.63
2023-01-21T19:46:47.777Z,6.83
2023-01-21T19:48:50.560Z,6.83
2023-01-21T19:50:52.388Z,7.57
2023-01-21T19:53:03.644Z,7.33
2023-01-21T19:55:06.714Z,6.27
2023-01-21T19:57:17.686Z,7.00
2023-01-21T19:59:19.533Z,7.10
2023-01-21T20:01:21.166Z,7.20
2023-01-21T20:03:25.369Z,7.53
2023-01-21T20:05:30.429Z,7.27
2023-01-21T20:07:39.175Z,7.23
2023-01-21T20:09:41.050Z,7.50
2023-01-21T20:11:42.772Z,6.53
2023-01-21T20:13:44.355Z,7.07
2023-01-21T20:15:48.314Z,7.10
2023-01-21T20:17:53.883Z,7.07
2023-01-21T20:19:55.415Z,6.73
2023-01-21T20:22:04.615Z,7.10
2023-01-21T20:24:10.591Z,6.90
2023-01-21T20:26:20.950Z,7.00
2023-01-21T20:28:40.027Z,7.03
2023-01-21T20:30:42.040Z,7.03
2023-01-21T20:32:48.142Z,7.03
2023-01-21T20:34:58.512Z,6.47
2023-01-21T20:37:00.352Z,7.17
2023-01-21T20:39:03.817Z,6.40
2023-01-21T20:41:06.297Z,6.77
2023-01-21T20:43:10.250Z,6.43
2023-01-21T20:45:16.204Z,6.87
2023-01-21T20:47:27.620Z,6.57
2023-01-21T20:49:39.709Z,5.80
2023-01-21T20:51:41.562Z,6.70
2023-01-21T20:53:43.352Z,6.70
2023-01-21T20:55:56.203Z,6.90
2023-01-21T20:58:00.156Z,6.90
2023-01-21T21:00:01.724Z,6.87
2023-01-21T21:02:03.492Z,6.57
2023-01-21T21:04:05.551Z,6.37
2023-01-21T21:06:31.204Z,6.50
2023-01-21T21:08:33.054Z,6.60
2023-01-21T21:10:38.956Z,5.87
2023-01-21T21:12:40.909Z,6.43
2023-01-21T21:14:42.797Z,6.23
2023-01-21T21:16:44.557Z,6.50
2023-01-21T21:18:46.718Z,6.13
2023-01-21T21:20:48.451Z,6.43
2023-01-21T21:22:50.594Z,5.90
2023-01-21T21:24:53.011Z,5.90
2023-01-21T21:26:54.726Z,6.10
2023-01-21T21:28:57.590Z,6.13
2023-01-21T21:31:01.392Z,6.60
2023-01-21T21:33:03.088Z,6.07
2023-01-21T21:35:26.973Z,5.77
2023-01-21T21:37:31.103Z,6.10
2023-01-21T21:39:32.725Z,6.17
2023-01-21T21:41:52.847Z,6.87
2023-01-21T21:43:54.498Z,6.43
2023-01-21T21:46:14.805Z,6.33
2023-01-21T21:48:41.050Z,6.40
2023-01-21T21:50:42.824Z,5.33
2023-01-21T21:52:44.815Z,6.77
2023-01-21T21:54:46.364Z,6.33
2023-01-21T21:56:48.191Z,5.80
2023-01-21T21:58:51.336Z,6.63
2023-01-21T22:00:55.804Z,6.63
2023-01-21T22:03:02.234Z,6.37
2023-01-21T22:05:07.058Z,5.87
2023-01-21T22:07:08.955Z,5.63
2023-01-21T22:09:10.676Z,5.93
2023-01-21T22:11:18.512Z,6.00
2023-01-21T22:13:20.144Z,5.77
2023-01-21T22:15:21.757Z,5.90
2023-01-21T22:17:23.408Z,6.03
2023-01-21T22:19:26.872Z,5.33
2023-01-21T22:21:32.089Z,5.17
2023-01-21T22:23:35.936Z,6.17
2023-01-21T22:25:37.751Z,5.87
2023-01-21T22:27:39.460Z,6.43
2023-01-21T22:29:43.118Z,6.27
2023-01-21T22:31:47.740Z,5.50
2023-01-21T22:33:50.148Z,5.83
2023-01-21T22:35:51.888Z,5.73
2023-01-21T22:37:53.380Z,5.93
2023-01-21T22:39:55.125Z,5.70
2023-01-21T22:42:00.254Z,5.87
2023-01-21T22:44:01.925Z,6.33
2023-01-21T22:46:03.836Z,5.97
2023-01-21T22:48:05.599Z,5.93
2023-01-21T22:50:07.719Z,6.00
2023-01-21T22:52:09.351Z,6.40
2023-01-21T22:54:10.988Z,6.80
2023-01-21T22:56:15.137Z,6.87
2023-01-21T22:58:16.728Z,6.73
2023-01-21T23:00:35.006Z,6.10
2023-01-21T23:02:36.576Z,6.63
2023-01-21T23:04:38.355Z,6.60
2023-01-21T23:06:40.049Z,5.67
2023-01-21T23:08:44.319Z,5.73
2023-01-21T23:10:47.321Z,5.73
2023-01-21T23:12:48.953Z,5.30
2023-01-21T23:14:53.228Z,5.17
2023-01-21T23:16:59.792Z,5.33
2023-01-21T23:19:01.379Z,6.10
2023-01-21T23:21:10.635Z,6.00
2023-01-21T23:23:12.538Z,5.30
2023-01-21T23:25:14.993Z,5.00
2023-01-21T23:27:16.649Z,5.87
2023-01-21T23:29:18.392Z,5.13
2023-01-21T23:31:22.827Z,5.40
2023-01-21T23:33:24.460Z,5.53
2023-01-21T23:35:26.772Z,5.43
2023-01-21T23:37:30.989Z,4.87
2023-01-21T23:39:32.724Z,5.40
2023-01-21T23:41:34.398Z,5.00
2023-01-21T23:43:38.510Z,5.17
2023-01-21T23:45:40.307Z,4.73
2023-01-21T23:47:42.188Z,5.27
2023-01-21T23:49:44.084Z,4.30
2023-01-21T23:51:47.503Z,5.10
2023-01-21T23:53:49.861Z,4.80
2023-01-21T23:55:51.857Z,5.40
2023-01-21T23:57:53.474Z,5.10
2023-01-21T23:59:58.119Z,4.70
